Terminal Aerodrome Forecast
Issued by NWS Sterling, VA

Current Version | Previous Version | Graphics & Text | Print | Product List | Glossary On
Versions: 1 2 3 4 5 6 7 8 9 10 11 12 13 14 15 16 17 18 19 20 21 22 23 24 25
155
FTUS41 KLWX 290527
TAFDCA
TAF
KDCA 290527Z 2906/3006 19007KT P6SM SCT250
     FM291100 00000KT P6SM BKN200
     FM291600 16005KT P6SM OVC150
     FM291800 16006KT P6SM OVC120
     FM291900 16006KT 6SM SHRA OVC050
     FM292200 15007KT 5SM SHRA OVC045
     FM300300 16004KT 5SM SHRA OVC020
     FM300400 17004KT 3SM SHRA BR OVC020=

USA.gov is the U.S. government's official web portal to all federal, state and local government web resources and services.